sensor_id;sensor_type;location;lat;lon;timestamp;pressure;altitude;pressure_sealevel;temperature;humidity
26043;BME280;13818;52.156;5.382;2022-12-18T00:01:59;102564.56;;;-3.43;100.00
26043;BME280;13818;52.156;5.382;2022-12-18T00:04:27;102565.81;;;-3.33;100.00
26043;BME280;13818;52.156;5.382;2022-12-18T00:06:53;102556.44;;;-3.28;100.00
26043;BME280;13818;52.156;5.382;2022-12-18T00:09:20;102546.75;;;-3.32;100.00
26043;BME280;13818;52.156;5.382;2022-12-18T00:11:47;102549.28;;;-3.34;100.00
26043;BME280;13818;52.156;5.382;2022-12-18T00:14:14;102544.84;;;-3.36;100.00
26043;BME280;13818;52.156;5.382;2022-12-18T00:16:43;102544.66;;;-3.41;100.00
26043;BME280;13818;52.156;5.382;2022-12-18T00:19:12;102549.09;;;-3.38;100.00
26043;BME280;13818;52.156;5.382;2022-12-18T00:21:39;102551.47;;;-3.45;100.00
26043;BME280;13818;52.156;5.382;2022-12-18T00:24:06;102537.13;;;-3.56;100.00
26043;BME280;13818;52.156;5.382;2022-12-18T00:26:34;102545.72;;;-3.58;100.00
26043;BME280;13818;52.156;5.382;2022-12-18T00:29:04;102563.44;;;-3.50;100.00
26043;BME280;13818;52.156;5.382;2022-12-18T00:31:31;102556.28;;;-3.55;100.00
26043;BME280;13818;52.156;5.382;2022-12-18T00:33:57;102553.72;;;-3.54;100.00
26043;BME280;13818;52.156;5.382;2022-12-18T00:36:27;102548.50;;;-3.54;100.00
26043;BME280;13818;52.156;5.382;2022-12-18T00:38:56;102543.06;;;-3.60;100.00
26043;BME280;13818;52.156;5.382;2022-12-18T00:41:23;102548.91;;;-3.66;100.00
26043;BME280;13818;52.156;5.382;2022-12-18T00:44:09;102533.72;;;-3.76;100.00
26043;BME280;13818;52.156;5.382;2022-12-18T00:46:36;102551.81;;;-3.81;100.00
26043;BME280;13818;52.156;5.382;2022-12-18T00:49:02;102536.03;;;-3.84;100.00
26043;BME280;13818;52.156;5.382;2022-12-18T00:51:30;102534.25;;;-3.85;100.00
26043;BME280;13818;52.156;5.382;2022-12-18T00:53:57;102551.22;;;-3.95;100.00
26043;BME280;13818;52.156;5.382;2022-12-18T00:56:24;102540.06;;;-3.92;100.00
26043;BME280;13818;52.156;5.382;2022-12-18T00:58:50;102543.34;;;-3.96;100.00
26043;BME280;13818;52.156;5.382;2022-12-18T01:01:18;102536.69;;;-3.89;100.00
26043;BME280;13818;52.156;5.382;2022-12-18T01:03:44;102536.19;;;-4.02;100.00
26043;BME280;13818;52.156;5.382;2022-12-18T01:06:13;102536.13;;;-4.03;100.00
26043;BME280;13818;52.156;5.382;2022-12-18T01:08:42;102531.84;;;-4.01;100.00
26043;BME280;13818;52.156;5.382;2022-12-18T01:11:11;102535.53;;;-3.96;100.00
26043;BME280;13818;52.156;5.382;2022-12-18T01:13:38;102533.69;;;-3.99;100.00
26043;BME280;13818;52.156;5.382;2022-12-18T01:16:05;102541.63;;;-3.96;100.00
26043;BME280;13818;52.156;5.382;2022-12-18T01:18:33;102534.84;;;-3.92;100.00
26043;BME280;13818;52.156;5.382;2022-12-18T01:21:00;102537.56;;;-3.89;100.00
26043;BME280;13818;52.156;5.382;2022-12-18T01:23:26;102538.72;;;-4.03;100.00
26043;BME280;13818;52.156;5.382;2022-12-18T01:25:54;102538.53;;;-4.08;100.00
26043;BME280;13818;52.156;5.382;2022-12-18T01:28:20;102544.09;;;-3.99;100.00
26043;BME280;13818;52.156;5.382;2022-12-18T01:30:47;102546.75;;;-3.97;100.00
26043;BME280;13818;52.156;5.382;2022-12-18T01:33:13;102547.63;;;-3.98;100.00
26043;BME280;13818;52.156;5.382;2022-12-18T01:35:41;102549.97;;;-4.04;100.00
26043;BME280;13818;52.156;5.382;2022-12-18T01:38:08;102551.59;;;-4.06;100.00
26043;BME280;13818;52.156;5.382;2022-12-18T01:40:34;102547.28;;;-4.06;100.00
26043;BME280;13818;52.156;5.382;2022-12-18T01:43:02;102554.97;;;-4.09;100.00
26043;BME280;13818;52.156;5.382;2022-12-18T01:45:30;102562.16;;;-4.03;100.00
26043;BME280;13818;52.156;5.382;2022-12-18T01:47:59;102569.97;;;-4.03;100.00
26043;BME280;13818;52.156;5.382;2022-12-18T01:50:31;102563.56;;;-4.12;100.00
26043;BME280;13818;52.156;5.382;2022-12-18T01:53:01;102561.81;;;-4.11;100.00
26043;BME280;13818;52.156;5.382;2022-12-18T01:55:32;102554.91;;;-4.11;100.00
26043;BME280;13818;52.156;5.382;2022-12-18T01:58:03;102555.94;;;-4.07;100.00
26043;BME280;13818;52.156;5.382;2022-12-18T02:00:30;102563.09;;;-4.01;100.00
26043;BME280;13818;52.156;5.382;2022-12-18T02:02:57;102566.69;;;-3.99;100.00
26043;BME280;13818;52.156;5.382;2022-12-18T02:05:29;102565.59;;;-4.04;100.00
26043;BME280;13818;52.156;5.382;2022-12-18T02:08:07;102572.75;;;-3.99;100.00
26043;BME280;13818;52.156;5.382;2022-12-18T02:10:43;102565.75;;;-4.00;100.00
26043;BME280;13818;52.156;5.382;2022-12-18T02:13:20;102577.97;;;-3.99;100.00
26043;BME280;13818;52.156;5.382;2022-12-18T02:15:55;102571.75;;;-4.02;100.00
26043;BME280;13818;52.156;5.382;2022-12-18T02:18:28;102564.94;;;-3.99;100.00
26043;BME280;13818;52.156;5.382;2022-12-18T02:21:01;102576.66;;;-3.89;100.00
26043;BME280;13818;52.156;5.382;2022-12-18T02:23:44;102567.59;;;-3.97;100.00
26043;BME280;13818;52.156;5.382;2022-12-18T02:26:17;102569.28;;;-3.99;100.00
26043;BME280;13818;52.156;5.382;2022-12-18T02:28:51;102579.81;;;-3.96;100.00
26043;BME280;13818;52.156;5.382;2022-12-18T02:31:21;102574.81;;;-3.92;100.00
26043;BME280;13818;52.156;5.382;2022-12-18T02:33:50;102581.75;;;-3.92;100.00
26043;BME280;13818;52.156;5.382;2022-12-18T02:36:19;102573.06;;;-3.91;100.00
26043;BME280;13818;52.156;5.382;2022-12-18T02:38:48;102567.25;;;-3.85;100.00
26043;BME280;13818;52.156;5.382;2022-12-18T02:41:18;102564.38;;;-3.92;100.00
26043;BME280;13818;52.156;5.382;2022-12-18T02:43:55;102565.34;;;-3.89;100.00
26043;BME280;13818;52.156;5.382;2022-12-18T02:46:32;102559.22;;;-3.90;100.00
26043;BME280;13818;52.156;5.382;2022-12-18T02:49:06;102548.25;;;-3.83;100.00
26043;BME280;13818;52.156;5.382;2022-12-18T02:51:41;102549.63;;;-3.91;100.00
26043;BME280;13818;52.156;5.382;2022-12-18T02:54:15;102553.25;;;-3.87;100.00
26043;BME280;13818;52.156;5.382;2022-12-18T02:56:50;102553.97;;;-3.92;100.00
26043;BME280;13818;52.156;5.382;2022-12-18T02:59:21;102552.94;;;-3.95;100.00
26043;BME280;13818;52.156;5.382;2022-12-18T03:01:52;102545.19;;;-3.94;100.00
26043;BME280;13818;52.156;5.382;2022-12-18T03:04:26;102537.44;;;-3.92;100.00
26043;BME280;13818;52.156;5.382;2022-12-18T03:06:57;102532.91;;;-3.96;100.00
26043;BME280;13818;52.156;5.382;2022-12-18T03:09:29;102536.34;;;-3.97;100.00
26043;BME280;13818;52.156;5.382;2022-12-18T03:12:02;102536.13;;;-4.03;100.00
26043;BME280;13818;52.156;5.382;2022-12-18T03:14:50;102528.94;;;-4.09;100.00
26043;BME280;13818;52.156;5.382;2022-12-18T03:17:20;102531.53;;;-4.09;100.00
26043;BME280;13818;52.156;5.382;2022-12-18T03:19:49;102530.72;;;-4.08;100.00
26043;BME280;13818;52.156;5.382;2022-12-18T03:22:18;102526.31;;;-4.09;100.00
26043;BME280;13818;52.156;5.382;2022-12-18T03:24:45;102517.63;;;-4.10;100.00
26043;BME280;13818;52.156;5.382;2022-12-18T03:27:17;102511.34;;;-4.15;100.00
26043;BME280;13818;52.156;5.382;2022-12-18T03:29:48;102508.41;;;-4.22;100.00
26043;BME280;13818;52.156;5.382;2022-12-18T03:32:23;102505.72;;;-4.24;100.00
26043;BME280;13818;52.156;5.382;2022-12-18T03:34:53;102507.41;;;-4.26;100.00
26043;BME280;13818;52.156;5.382;2022-12-18T03:37:21;102503.63;;;-4.33;100.00
26043;BME280;13818;52.156;5.382;2022-12-18T03:39:47;102500.97;;;-4.34;100.00
26043;BME280;13818;52.156;5.382;2022-12-18T03:42:22;102493.09;;;-4.36;100.00
26043;BME280;13818;52.156;5.382;2022-12-18T03:44:54;102487.84;;;-4.37;100.00
26043;BME280;13818;52.156;5.382;2022-12-18T03:47:28;102497.41;;;-4.36;100.00
26043;BME280;13818;52.156;5.382;2022-12-18T03:50:03;102490.34;;;-4.39;100.00
26043;BME280;13818;52.156;5.382;2022-12-18T03:52:36;102491.88;;;-4.44;100.00
26043;BME280;13818;52.156;5.382;2022-12-18T03:55:05;102485.59;;;-4.49;100.00
26043;BME280;13818;52.156;5.382;2022-12-18T03:57:35;102486.41;;;-4.50;100.00
26043;BME280;13818;52.156;5.382;2022-12-18T04:00:03;102488.00;;;-4.54;100.00
26043;BME280;13818;52.156;5.382;2022-12-18T04:02:31;102490.59;;;-4.54;100.00
26043;BME280;13818;52.156;5.382;2022-12-18T04:05:00;102482.66;;;-4.57;100.00
26043;BME280;13818;52.156;5.382;2022-12-18T04:07:28;102472.97;;;-4.61;100.00
26043;BME280;13818;52.156;5.382;2022-12-18T04:09:56;102471.72;;;-4.69;100.00
26043;BME280;13818;52.156;5.382;2022-12-18T04:12:25;102477.50;;;-4.77;100.00
26043;BME280;13818;52.156;5.382;2022-12-18T04:14:53;102471.41;;;-4.77;100.00
26043;BME280;13818;52.156;5.382;2022-12-18T04:17:20;102461.75;;;-4.80;100.00
26043;BME280;13818;52.156;5.382;2022-12-18T04:19:46;102462.56;;;-4.81;100.00
26043;BME280;13818;52.156;5.382;2022-12-18T04:22:13;102454.72;;;-4.82;100.00
26043;BME280;13818;52.156;5.382;2022-12-18T04:24:39;102457.25;;;-4.84;100.00
26043;BME280;13818;52.156;5.382;2022-12-18T04:27:06;102444.91;;;-4.88;100.00
26043;BME280;13818;52.156;5.382;2022-12-18T04:29:33;102450.97;;;-4.89;100.00
26043;BME280;13818;52.156;5.382;2022-12-18T04:32:01;102448.38;;;-4.89;100.00
26043;BME280;13818;52.156;5.382;2022-12-18T04:34:27;102454.44;;;-4.88;100.00
26043;BME280;13818;52.156;5.382;2022-12-18T04:36:53;102453.47;;;-4.91;100.00
26043;BME280;13818;52.156;5.382;2022-12-18T04:39:20;102456.06;;;-4.91;100.00
26043;BME280;13818;52.156;5.382;2022-12-18T04:41:46;102454.38;;;-4.90;100.00
26043;BME280;13818;52.156;5.382;2022-12-18T04:44:13;102463.06;;;-4.90;100.00
26043;BME280;13818;52.156;5.382;2022-12-18T04:46:39;102464.91;;;-4.87;100.00
26043;BME280;13818;52.156;5.382;2022-12-18T04:49:07;102476.28;;;-4.85;100.00
26043;BME280;13818;52.156;5.382;2022-12-18T04:51:35;102473.63;;;-4.86;100.00
26043;BME280;13818;52.156;5.382;2022-12-18T04:54:02;102473.63;;;-4.86;100.00
26043;BME280;13818;52.156;5.382;2022-12-18T04:56:30;102478.81;;;-4.86;100.00
26043;BME280;13818;52.156;5.382;2022-12-18T04:58:57;102485.66;;;-4.88;100.00
26043;BME280;13818;52.156;5.382;2022-12-18T05:01:24;102483.81;;;-4.91;100.00
26043;BME280;13818;52.156;5.382;2022-12-18T05:03:50;102487.28;;;-4.91;100.00
26043;BME280;13818;52.156;5.382;2022-12-18T05:06:18;102498.44;;;-4.93;100.00
26043;BME280;13818;52.156;5.382;2022-12-18T05:08:44;102506.41;;;-4.90;100.00
26043;BME280;13818;52.156;5.382;2022-12-18T05:11:13;102511.72;;;-4.87;100.00
26043;BME280;13818;52.156;5.382;2022-12-18T05:13:41;102503.94;;;-4.87;100.00
26043;BME280;13818;52.156;5.382;2022-12-18T05:16:08;102497.84;;;-4.87;100.00
26043;BME280;13818;52.156;5.382;2022-12-18T05:18:34;102507.44;;;-4.86;100.00
26043;BME280;13818;52.156;5.382;2022-12-18T05:21:01;102510.91;;;-4.86;100.00
26043;BME280;13818;52.156;5.382;2022-12-18T05:23:29;102509.13;;;-4.87;100.00
26043;BME280;13818;52.156;5.382;2022-12-18T05:25:57;102514.41;;;-4.85;100.00
26043;BME280;13818;52.156;5.382;2022-12-18T05:28:26;102525.84;;;-4.82;100.00
26043;BME280;13818;52.156;5.382;2022-12-18T05:30:55;102528.38;;;-4.83;100.00
26043;BME280;13818;52.156;5.382;2022-12-18T05:33:23;102532.81;;;-4.81;100.00
26043;BME280;13818;52.156;5.382;2022-12-18T05:35:50;102532.00;;;-4.80;100.00
26043;BME280;13818;52.156;5.382;2022-12-18T05:38:17;102531.19;;;-4.79;100.00
26043;BME280;13818;52.156;5.382;2022-12-18T05:40:44;102521.47;;;-4.83;100.00
26043;BME280;13818;52.156;5.382;2022-12-18T05:43:11;102515.38;;;-4.83;100.00
26043;BME280;13818;52.156;5.382;2022-12-18T05:45:37;102500.66;;;-4.83;100.00
26043;BME280;13818;52.156;5.382;2022-12-18T05:48:06;102490.16;;;-4.84;100.00
26043;BME280;13818;52.156;5.382;2022-12-18T05:50:34;102497.22;;;-4.82;100.00
26043;BME280;13818;52.156;5.382;2022-12-18T05:53:01;102501.47;;;-4.84;100.00
26043;BME280;13818;52.156;5.382;2022-12-18T05:55:27;102495.47;;;-4.83;100.00
26043;BME280;13818;52.156;5.382;2022-12-18T05:57:55;102496.19;;;-4.85;100.00
26043;BME280;13818;52.156;5.382;2022-12-18T06:00:21;102492.84;;;-4.83;100.00
26043;BME280;13818;52.156;5.382;2022-12-18T06:02:48;102489.22;;;-4.86;100.00
26043;BME280;13818;52.156;5.382;2022-12-18T06:05:14;102483.06;;;-4.88;100.00
26043;BME280;13818;52.156;5.382;2022-12-18T06:07:41;102483.13;;;-4.87;100.00
26043;BME280;13818;52.156;5.382;2022-12-18T06:10:07;102486.00;;;-4.81;100.00
26043;BME280;13818;52.156;5.382;2022-12-18T06:12:34;102485.13;;;-4.81;100.00
26043;BME280;13818;52.156;5.382;2022-12-18T06:15:02;102478.88;;;-4.85;100.00
26043;BME280;13818;52.156;5.382;2022-12-18T06:17:28;102473.53;;;-4.88;100.00
26043;BME280;13818;52.156;5.382;2022-12-18T06:19:55;102477.97;;;-4.85;100.00
26043;BME280;13818;52.156;5.382;2022-12-18T06:22:21;102465.72;;;-4.88;100.00
26043;BME280;13818;52.156;5.382;2022-12-18T06:24:48;102472.88;;;-5.03;100.00
26043;BME280;13818;52.156;5.382;2022-12-18T06:27:14;102473.13;;;-4.97;100.00
26043;BME280;13818;52.156;5.382;2022-12-18T06:29:41;102457.59;;;-4.96;100.00
26043;BME280;13818;52.156;5.382;2022-12-18T06:32:09;102461.09;;;-4.95;100.00
26043;BME280;13818;52.156;5.382;2022-12-18T06:34:37;102459.16;;;-4.99;100.00
26043;BME280;13818;52.156;5.382;2022-12-18T06:37:03;102449.50;;;-5.02;100.00
26043;BME280;13818;52.156;5.382;2022-12-18T06:39:30;102442.63;;;-5.01;100.00
26043;BME280;13818;52.156;5.382;2022-12-18T06:41:56;102439.75;;;-5.08;100.00
26043;BME280;13818;52.156;5.382;2022-12-18T06:44:23;102452.81;;;-5.06;100.00
26043;BME280;13818;52.156;5.382;2022-12-18T06:46:49;102436.94;;;-5.12;100.00
26043;BME280;13818;52.156;5.382;2022-12-18T06:49:17;102435.91;;;-5.16;100.00
26043;BME280;13818;52.156;5.382;2022-12-18T06:51:43;102439.41;;;-5.15;100.00
26043;BME280;13818;52.156;5.382;2022-12-18T06:54:10;102442.91;;;-5.15;100.00
26043;BME280;13818;52.156;5.382;2022-12-18T06:56:36;102435.91;;;-5.16;100.00
26043;BME280;13818;52.156;5.382;2022-12-18T06:59:03;102427.28;;;-5.15;100.00
26043;BME280;13818;52.156;5.382;2022-12-18T07:01:29;102415.88;;;-5.18;100.00
26043;BME280;13818;52.156;5.382;2022-12-18T07:03:56;102424.47;;;-5.19;100.00
26043;BME280;13818;52.156;5.382;2022-12-18T07:06:25;102420.19;;;-5.19;100.00
26043;BME280;13818;52.156;5.382;2022-12-18T07:08:52;102417.44;;;-5.22;100.00
26043;BME280;13818;52.156;5.382;2022-12-18T07:11:19;102419.22;;;-5.21;100.00
26043;BME280;13818;52.156;5.382;2022-12-18T07:13:46;102422.63;;;-5.22;100.00
26043;BME280;13818;52.156;5.382;2022-12-18T07:16:14;102406.91;;;-5.25;100.00
26043;BME280;13818;52.156;5.382;2022-12-18T07:18:41;102410.28;;;-5.28;100.00
26043;BME280;13818;52.156;5.382;2022-12-18T07:21:12;102412.81;;;-5.29;100.00
26043;BME280;13818;52.156;5.382;2022-12-18T07:23:40;102409.44;;;-5.27;100.00
26043;BME280;13818;52.156;5.382;2022-12-18T07:26:08;102406.09;;;-5.24;100.00
26043;BME280;13818;52.156;5.382;2022-12-18T07:28:35;102412.88;;;-5.28;100.00
26043;BME280;13818;52.156;5.382;2022-12-18T07:31:02;102402.19;;;-5.34;100.00
26043;BME280;13818;52.156;5.382;2022-12-18T07:33:29;102393.63;;;-5.31;100.00
26043;BME280;13818;52.156;5.382;2022-12-18T07:35:58;102397.22;;;-5.29;100.00
26043;BME280;13818;52.156;5.382;2022-12-18T07:38:24;102392.81;;;-5.30;100.00
26043;BME280;13818;52.156;5.382;2022-12-18T07:40:52;102390.34;;;-5.27;100.00
26043;BME280;13818;52.156;5.382;2022-12-18T07:43:19;102386.81;;;-5.29;100.00
26043;BME280;13818;52.156;5.382;2022-12-18T07:45:49;102382.44;;;-5.30;100.00
26043;BME280;13818;52.156;5.382;2022-12-18T07:48:15;102369.16;;;-5.36;100.00
26043;BME280;13818;52.156;5.382;2022-12-18T07:50:42;102374.34;;;-5.36;100.00
26043;BME280;13818;52.156;5.382;2022-12-18T07:53:08;102359.56;;;-5.37;100.00
26043;BME280;13818;52.156;5.382;2022-12-18T07:55:35;102363.00;;;-5.39;100.00
26043;BME280;13818;52.156;5.382;2022-12-18T07:58:03;102362.38;;;-5.33;100.00
26043;BME280;13818;52.156;5.382;2022-12-18T08:00:30;102359.91;;;-5.30;100.00
26043;BME280;13818;52.156;5.382;2022-12-18T08:02:57;102357.41;;;-5.28;100.00
26043;BME280;13818;52.156;5.382;2022-12-18T08:05:23;102363.75;;;-5.21;100.00
26043;BME280;13818;52.156;5.382;2022-12-18T08:07:50;102354.44;;;-5.16;100.00
26043;BME280;13818;52.156;5.382;2022-12-18T08:10:17;102345.66;;;-5.18;100.00
26043;BME280;13818;52.156;5.382;2022-12-18T08:12:43;102345.06;;;-5.13;100.00
26043;BME280;13818;52.156;5.382;2022-12-18T08:15:11;102340.38;;;-5.00;100.00
26043;BME280;13818;52.156;5.382;2022-12-18T08:17:38;102346.66;;;-4.95;100.00
26043;BME280;13818;52.156;5.382;2022-12-18T08:20:05;102355.66;;;-4.87;100.00
26043;BME280;13818;52.156;5.382;2022-12-18T08:22:33;102357.63;;;-4.81;100.00
26043;BME280;13818;52.156;5.382;2022-12-18T08:25:04;102362.78;;;-4.83;100.00
26043;BME280;13818;52.156;5.382;2022-12-18T08:27:31;102368.16;;;-4.78;100.00
26043;BME280;13818;52.156;5.382;2022-12-18T08:29:58;102369.38;;;-4.70;100.00
26043;BME280;13818;52.156;5.382;2022-12-18T08:32:26;102393.22;;;-4.59;100.00
26043;BME280;13818;52.156;5.382;2022-12-18T08:34:53;102386.47;;;-4.54;100.00
26043;BME280;13818;52.156;5.382;2022-12-18T08:37:19;102376.97;;;-4.53;100.00
26043;BME280;13818;52.156;5.382;2022-12-18T08:39:46;102379.00;;;-4.46;100.00
26043;BME280;13818;52.156;5.382;2022-12-18T08:42:12;102384.44;;;-4.40;100.00
26043;BME280;13818;52.156;5.382;2022-12-18T08:44:56;102369.84;;;-4.36;100.00
26043;BME280;13818;52.156;5.382;2022-12-18T08:47:22;102358.66;;;-4.34;100.00
26043;BME280;13818;52.156;5.382;2022-12-18T08:49:52;102374.59;;;-4.26;100.00
26043;BME280;13818;52.156;5.382;2022-12-18T08:52:18;102366.19;;;-4.19;100.00
26043;BME280;13818;52.156;5.382;2022-12-18T08:54:45;102363.63;;;-4.17;100.00
26043;BME280;13818;52.156;5.382;2022-12-18T08:57:11;102355.91;;;-4.16;100.00
26043;BME280;13818;52.156;5.382;2022-12-18T08:59:38;102372.59;;;-4.11;100.00
26043;BME280;13818;52.156;5.382;2022-12-18T09:02:05;102380.22;;;-3.93;100.00
26043;BME280;13818;52.156;5.382;2022-12-18T09:04:31;102389.22;;;-3.84;100.00
26043;BME280;13818;52.156;5.382;2022-12-18T09:06:59;102381.56;;;-3.80;100.00
26043;BME280;13818;52.156;5.382;2022-12-18T09:09:26;102373.75;;;-3.80;100.00
26043;BME280;13818;52.156;5.382;2022-12-18T09:11:52;102362.44;;;-3.80;100.00
26043;BME280;13818;52.156;5.382;2022-12-18T09:14:18;102361.00;;;-3.72;100.00
26043;BME280;13818;52.156;5.382;2022-12-18T09:16:45;102362.22;;;-3.62;100.00
26043;BME280;13818;52.156;5.382;2022-12-18T09:19:12;102356.00;;;-3.66;100.00
26043;BME280;13818;52.156;5.382;2022-12-18T09:21:39;102358.25;;;-3.52;100.00
26043;BME280;13818;52.156;5.382;2022-12-18T09:24:11;102355.69;;;-3.51;100.00
26043;BME280;13818;52.156;5.382;2022-12-18T09:26:38;102362.09;;;-3.42;100.00
26043;BME280;13818;52.156;5.382;2022-12-18T09:29:05;102358.56;;;-3.43;100.00
26043;BME280;13818;52.156;5.382;2022-12-18T09:31:32;102367.16;;;-3.46;100.00
26043;BME280;13818;52.156;5.382;2022-12-18T09:33:59;102362.09;;;-3.42;100.00
26043;BME280;13818;52.156;5.382;2022-12-18T09:36:26;102352.69;;;-3.37;100.00
26043;BME280;13818;52.156;5.382;2022-12-18T09:38:52;102344.50;;;-3.24;100.00
26043;BME280;13818;52.156;5.382;2022-12-18T09:41:41;102339.63;;;-3.13;100.00
26043;BME280;13818;52.156;5.382;2022-12-18T09:44:22;102335.72;;;-3.26;100.00
26043;BME280;13818;52.156;5.382;2022-12-18T09:46:53;102331.72;;;-3.16;100.00
26043;BME280;13818;52.156;5.382;2022-12-18T09:49:25;102341.78;;;-3.01;100.00
26043;BME280;13818;52.156;5.382;2022-12-18T09:51:57;102336.81;;;-2.93;100.00
26043;BME280;13818;52.156;5.382;2022-12-18T09:54:31;102322.09;;;-2.91;100.00
26043;BME280;13818;52.156;5.382;2022-12-18T09:57:00;102318.66;;;-2.90;100.00
26043;BME280;13818;52.156;5.382;2022-12-18T09:59:32;102322.50;;;-2.79;100.00
26043;BME280;13818;52.156;5.382;2022-12-18T10:02:00;102317.41;;;-2.76;100.00
26043;BME280;13818;52.156;5.382;2022-12-18T10:04:38;102319.50;;;-2.64;100.00
26043;BME280;13818;52.156;5.382;2022-12-18T10:07:09;102323.13;;;-2.59;100.00
26043;BME280;13818;52.156;5.382;2022-12-18T10:09:44;102320.53;;;-2.59;100.00
26043;BME280;13818;52.156;5.382;2022-12-18T10:12:21;102324.09;;;-2.57;100.00
26043;BME280;13818;52.156;5.382;2022-12-18T10:14:54;102310.38;;;-2.50;100.00
26043;BME280;13818;52.156;5.382;2022-12-18T10:17:27;102305.25;;;-2.47;100.00
26043;BME280;13818;52.156;5.382;2022-12-18T10:20:02;102304.81;;;-2.33;100.00
26043;BME280;13818;52.156;5.382;2022-12-18T10:22:39;102308.44;;;-2.28;100.00
26043;BME280;13818;52.156;5.382;2022-12-18T10:25:17;102315.00;;;-2.12;100.00
26043;BME280;13818;52.156;5.382;2022-12-18T10:27:47;102307.53;;;-2.00;100.00
26043;BME280;13818;52.156;5.382;2022-12-18T10:30:19;102319.00;;;-1.94;100.00
26043;BME280;13818;52.156;5.382;2022-12-18T10:32:46;102305.88;;;-1.96;100.00
26043;BME280;13818;52.156;5.382;2022-12-18T10:35:18;102292.00;;;-1.95;100.00
26043;BME280;13818;52.156;5.382;2022-12-18T10:38:21;102286.00;;;-1.91;100.00
26043;BME280;13818;52.156;5.382;2022-12-18T10:40:51;102295.78;;;-1.84;100.00
26043;BME280;13818;52.156;5.382;2022-12-18T10:43:22;102302.69;;;-1.86;100.00
26043;BME280;13818;52.156;5.382;2022-12-18T10:46:07;102278.16;;;-1.91;100.00
26043;BME280;13818;52.156;5.382;2022-12-18T10:48:40;102288.94;;;-1.80;100.00
26043;BME280;13818;52.156;5.382;2022-12-18T10:51:20;102277.78;;;-1.73;100.00
26043;BME280;13818;52.156;5.382;2022-12-18T10:53:52;102285.00;;;-1.64;100.00
26043;BME280;13818;52.156;5.382;2022-12-18T10:56:20;102274.31;;;-1.72;100.00
26043;BME280;13818;52.156;5.382;2022-12-18T10:58:57;102278.31;;;-1.53;100.00
26043;BME280;13818;52.156;5.382;2022-12-18T11:01:23;102269.66;;;-1.50;100.00
26043;BME280;13818;52.156;5.382;2022-12-18T11:03:59;102268.94;;;-1.46;100.00
26043;BME280;13818;52.156;5.382;2022-12-18T11:06:27;102258.53;;;-1.43;100.00
26043;BME280;13818;52.156;5.382;2022-12-18T11:08:59;102256.84;;;-1.41;100.00
26043;BME280;13818;52.156;5.382;2022-12-18T11:11:26;102251.72;;;-1.36;100.00
26043;BME280;13818;52.156;5.382;2022-12-18T11:13:59;102249.91;;;-1.39;100.00
26043;BME280;13818;52.156;5.382;2022-12-18T11:16:28;102240.25;;;-1.41;100.00
26043;BME280;13818;52.156;5.382;2022-12-18T11:19:11;102244.03;;;-1.30;100.00
26043;BME280;13818;52.156;5.382;2022-12-18T11:21:40;102236.47;;;-1.19;100.00
26043;BME280;13818;52.156;5.382;2022-12-18T11:24:18;102226.13;;;-1.15;100.00
26043;BME280;13818;52.156;5.382;2022-12-18T11:26:45;102219.13;;;-1.16;100.00
26043;BME280;13818;52.156;5.382;2022-12-18T11:29:18;102211.28;;;-1.14;100.00
26043;BME280;13818;52.156;5.382;2022-12-18T11:31:44;102214.09;;;-1.06;100.00
26043;BME280;13818;52.156;5.382;2022-12-18T11:34:23;102221.16;;;-1.02;100.00
26043;BME280;13818;52.156;5.382;2022-12-18T11:36:52;102223.88;;;-0.99;100.00
26043;BME280;13818;52.156;5.382;2022-12-18T11:39:26;102219.59;;;-0.95;100.00
26043;BME280;13818;52.156;5.382;2022-12-18T11:42:01;102217.88;;;-0.93;100.00
26043;BME280;13818;52.156;5.382;2022-12-18T11:44:42;102217.22;;;-0.85;100.00
26043;BME280;13818;52.156;5.382;2022-12-18T11:47:19;102219.13;;;-0.77;100.00
26043;BME280;13818;52.156;5.382;2022-12-18T11:49:49;102216.69;;;-0.70;100.00
26043;BME280;13818;52.156;5.382;2022-12-18T11:52:19;102207.13;;;-0.68;100.00
26043;BME280;13818;52.156;5.382;2022-12-18T11:54:56;102208.00;;;-0.67;100.00
26043;BME280;13818;52.156;5.382;2022-12-18T11:57:33;102207.25;;;-0.63;100.00
26043;BME280;13818;52.156;5.382;2022-12-18T12:00:12;102195.72;;;-0.70;100.00
26043;BME280;13818;52.156;5.382;2022-12-18T12:03:03;102187.22;;;-0.59;100.00
26043;BME280;13818;52.156;5.382;2022-12-18T12:05:45;102180.25;;;-0.60;100.00
26043;BME280;13818;52.156;5.382;2022-12-18T12:08:18;102177.63;;;-0.59;100.00
26043;BME280;13818;52.156;5.382;2022-12-18T12:10:54;102165.50;;;-0.55;100.00
26043;BME280;13818;52.156;5.382;2022-12-18T12:13:30;102153.97;;;-0.63;100.00
26043;BME280;13818;52.156;5.382;2022-12-18T12:16:11;102155.03;;;-0.54;100.00
26043;BME280;13818;52.156;5.382;2022-12-18T12:19:06;102146.22;;;-0.59;100.00
26043;BME280;13818;52.156;5.382;2022-12-18T12:21:40;102152.44;;;-0.54;100.00
26043;BME280;13818;52.156;5.382;2022-12-18T12:24:19;102152.41;;;-0.55;100.00
26043;BME280;13818;52.156;5.382;2022-12-18T12:26:54;102144.69;;;-0.47;100.00
26043;BME280;13818;52.156;5.382;2022-12-18T12:29:34;102148.28;;;-0.42;100.00
26043;BME280;13818;52.156;5.382;2022-12-18T12:32:16;102139.59;;;-0.40;100.00
26043;BME280;13818;52.156;5.382;2022-12-18T12:34:54;102142.22;;;-0.40;100.00
26043;BME280;13818;52.156;5.382;2022-12-18T12:37:36;102144.81;;;-0.43;100.00
26043;BME280;13818;52.156;5.382;2022-12-18T12:40:07;102132.00;;;-0.27;100.00
26043;BME280;13818;52.156;5.382;2022-12-18T12:42:41;102133.66;;;-0.31;100.00
26043;BME280;13818;52.156;5.382;2022-12-18T12:45:33;102128.47;;;-0.28;100.00
26043;BME280;13818;52.156;5.382;2022-12-18T12:48:05;102119.78;;;-0.25;100.00
26043;BME280;13818;52.156;5.382;2022-12-18T12:50:34;102112.81;;;-0.26;100.00
26043;BME280;13818;52.156;5.382;2022-12-18T12:53:06;102104.16;;;-0.21;100.00
26043;BME280;13818;52.156;5.382;2022-12-18T12:55:34;102112.09;;;-0.18;100.00